createdAt,value
2018-01-10T00:01:32.875Z,21.30
2018-01-10T00:04:00.673Z,16.90
2018-01-10T00:06:28.332Z,21.60
2018-01-10T00:08:55.927Z,21.07
2018-01-10T00:11:24.295Z,20.07
2018-01-10T00:13:51.895Z,23.17
2018-01-10T00:16:19.507Z,20.83
2018-01-10T00:18:48.553Z,21.93
2018-01-10T00:21:16.178Z,21.17
2018-01-10T00:23:43.821Z,20.93
2018-01-10T00:26:11.429Z,21.17
2018-01-10T00:28:39.018Z,21.93
2018-01-10T00:31:06.858Z,21.57
2018-01-10T00:33:34.517Z,22.77
2018-01-10T00:36:02.624Z,22.20
2018-01-10T00:38:30.465Z,20.37
2018-01-10T00:40:58.333Z,23.37
2018-01-10T00:43:26.404Z,23.07
2018-01-10T00:45:54.010Z,23.47
2018-01-10T00:48:21.594Z,23.90
2018-01-10T00:50:50.070Z,24.13
2018-01-10T00:53:18.932Z,24.00
2018-01-10T00:55:47.201Z,24.03
2018-01-10T00:58:14.776Z,23.63
2018-01-10T01:00:42.428Z,24.13
2018-01-10T01:03:10.043Z,25.47
2018-01-10T01:05:37.655Z,24.80
2018-01-10T01:08:05.305Z,24.80
2018-01-10T01:10:32.944Z,25.10
2018-01-10T01:13:00.565Z,24.70
2018-01-10T01:15:28.974Z,18.97
2018-01-10T01:17:56.600Z,25.27
2018-01-10T01:20:24.947Z,25.23
2018-01-10T01:22:52.641Z,24.33
2018-01-10T01:25:20.239Z,26.37
2018-01-10T01:27:47.861Z,25.67
2018-01-10T01:30:15.495Z,25.80
2018-01-10T01:32:43.069Z,26.13
2018-01-10T01:35:10.665Z,27.30
2018-01-10T01:37:38.409Z,27.57
2018-01-10T01:40:06.970Z,27.70
2018-01-10T01:42:34.736Z,25.57
2018-01-10T01:45:02.399Z,27.70
2018-01-10T01:47:30.674Z,26.63
2018-01-10T01:49:58.860Z,28.30
2018-01-10T01:52:26.507Z,27.50
2018-01-10T01:54:54.118Z,28.83
2018-01-10T01:57:21.708Z,30.20
2018-01-10T01:59:49.801Z,29.93
2018-01-10T02:02:17.620Z,28.97
2018-01-10T02:04:45.204Z,30.07
2018-01-10T02:07:13.118Z,30.33
2018-01-10T02:09:41.506Z,24.53
2018-01-10T02:12:09.955Z,30.43
2018-01-10T02:14:37.542Z,28.93
2018-01-10T02:17:05.194Z,32.23
2018-01-10T02:19:32.772Z,33.23
2018-01-10T02:22:01.220Z,27.77
2018-01-10T02:24:29.121Z,30.90
2018-01-10T02:26:56.782Z,31.80
2018-01-10T02:29:24.438Z,31.57
2018-01-10T02:31:52.123Z,32.43
2018-01-10T02:34:19.746Z,29.40
2018-01-10T02:36:47.329Z,31.80
2018-01-10T02:39:15.716Z,31.37
2018-01-10T02:41:44.087Z,32.57
2018-01-10T02:44:11.715Z,20.93
2018-01-10T02:46:39.308Z,31.30
2018-01-10T02:49:06.950Z,33.03
2018-01-10T02:51:34.547Z,33.07
2018-01-10T02:54:02.173Z,28.23
2018-01-10T02:56:29.834Z,33.03
2018-01-10T02:58:58.203Z,30.27
2018-01-10T03:01:25.880Z,33.03
2018-01-10T03:03:53.615Z,29.40
2018-01-10T03:06:21.303Z,32.53
2018-01-10T03:08:48.890Z,29.23
2018-01-10T03:11:17.267Z,34.43
2018-01-10T03:13:44.906Z,34.77
2018-01-10T03:16:12.567Z,32.07
2018-01-10T03:18:40.441Z,33.07
2018-01-10T03:21:08.095Z,34.67
2018-01-10T03:23:35.698Z,32.60
2018-01-10T03:26:03.317Z,34.53
2018-01-10T03:28:30.969Z,33.30
2018-01-10T03:30:58.636Z,33.37
2018-01-10T03:33:26.305Z,36.03
2018-01-10T03:35:54.665Z,35.37
2018-01-10T03:38:22.336Z,36.33
2018-01-10T03:40:49.926Z,33.70
2018-01-10T03:43:17.837Z,36.37
2018-01-10T03:45:45.417Z,36.83
2018-01-10T03:48:13.027Z,36.30
2018-01-10T03:50:40.621Z,34.40
2018-01-10T03:53:08.196Z,36.73
2018-01-10T03:55:35.801Z,36.77
2018-01-10T03:58:03.726Z,36.30
2018-01-10T04:00:31.339Z,37.63
2018-01-10T04:02:58.984Z,37.40
2018-01-10T04:05:27.341Z,37.50
2018-01-10T04:07:54.939Z,37.27
2018-01-10T04:10:22.547Z,36.43
2018-01-10T04:12:50.165Z,39.23
2018-01-10T04:15:17.793Z,36.87
2018-01-10T04:17:46.251Z,38.57
2018-01-10T04:20:13.849Z,37.20
2018-01-10T04:22:42.197Z,37.47
2018-01-10T04:25:09.924Z,38.07
2018-01-10T04:27:37.579Z,36.70
2018-01-10T04:30:05.651Z,39.23
2018-01-10T04:32:33.229Z,39.63
2018-01-10T04:35:00.890Z,38.73
2018-01-10T04:37:28.701Z,37.83
2018-01-10T04:39:56.296Z,39.27
2018-01-10T04:42:23.881Z,43.50
2018-01-10T04:44:52.007Z,41.33
2018-01-10T04:47:19.657Z,39.10
2018-01-10T04:49:47.296Z,38.83
2018-01-10T04:52:14.935Z,41.23
2018-01-10T04:54:43.418Z,39.87
2018-01-10T04:57:11.180Z,41.13
2018-01-10T04:59:38.801Z,42.20
2018-01-10T05:02:07.680Z,39.90
2018-01-10T05:04:35.315Z,39.67
2018-01-10T05:07:03.693Z,42.43
2018-01-10T05:09:31.290Z,40.50
2018-01-10T05:11:59.634Z,40.00
2018-01-10T05:14:27.283Z,40.30
2018-01-10T05:16:54.823Z,41.00
2018-01-10T05:19:22.443Z,40.77
2018-01-10T05:21:50.024Z,41.93
2018-01-10T05:24:17.669Z,38.33
2018-01-10T05:26:45.237Z,40.80
2018-01-10T05:29:13.062Z,40.43
2018-01-10T05:31:40.663Z,42.83
2018-01-10T05:34:08.284Z,39.30
2018-01-10T05:36:35.897Z,38.17
2018-01-10T05:39:03.534Z,37.73
2018-01-10T05:41:31.150Z,39.93
2018-01-10T05:43:58.909Z,36.73
2018-01-10T05:46:26.521Z,39.30
2018-01-10T05:48:54.920Z,38.00
2018-01-10T05:51:23.249Z,39.03
2018-01-10T05:53:50.889Z,38.57
2018-01-10T05:56:18.440Z,36.37
2018-01-10T05:58:46.035Z,38.90
2018-01-10T06:01:13.651Z,39.43
2018-01-10T06:03:42.050Z,38.10
2018-01-10T06:06:10.591Z,37.93
2018-01-10T06:08:38.917Z,39.93
2018-01-10T06:11:06.904Z,37.33
2018-01-10T06:13:34.507Z,37.13
2018-01-10T06:16:02.263Z,37.07
2018-01-10T06:18:30.610Z,36.60
2018-01-10T06:20:58.319Z,43.40
2018-01-10T06:23:25.933Z,38.90
2018-01-10T06:25:53.493Z,35.93
2018-01-10T06:28:21.083Z,36.97
2018-01-10T06:30:48.691Z,36.20
2018-01-10T06:33:16.237Z,30.70
2018-01-10T06:35:43.857Z,39.07
2018-01-10T06:38:11.426Z,38.43
2018-01-10T06:40:38.988Z,40.70
2018-01-10T06:43:07.339Z,38.17
2018-01-10T06:45:34.982Z,35.43
2018-01-10T06:48:02.550Z,35.57
2018-01-10T06:50:30.180Z,35.43
2018-01-10T06:52:57.819Z,38.47
2018-01-10T06:55:26.194Z,37.27
2018-01-10T06:57:53.827Z,37.90
2018-01-10T07:00:21.479Z,35.13
2018-01-10T07:02:49.117Z,38.50
2018-01-10T07:05:16.880Z,35.70
2018-01-10T07:07:44.648Z,36.23
2018-01-10T07:10:12.268Z,36.63
2018-01-10T07:12:39.966Z,35.73
2018-01-10T07:15:07.583Z,33.87
2018-01-10T07:17:36.711Z,36.13
2018-01-10T07:20:04.328Z,34.37
2018-01-10T07:22:31.990Z,35.10
2018-01-10T07:24:59.714Z,37.73
2018-01-10T07:27:27.261Z,37.50
2018-01-10T07:29:54.860Z,34.13
2018-01-10T07:32:22.439Z,37.30
2018-01-10T07:34:50.047Z,39.77
2018-01-10T07:37:19.140Z,37.33
2018-01-10T07:39:46.791Z,35.20
2018-01-10T07:42:14.369Z,36.37
2018-01-10T07:44:41.980Z,38.00
2018-01-10T07:47:09.549Z,37.60
2018-01-10T07:49:37.264Z,39.73
2018-01-10T07:52:04.890Z,37.33
2018-01-10T07:54:32.494Z,35.30
2018-01-10T07:57:00.199Z,36.97
2018-01-10T07:59:27.759Z,33.90
2018-01-10T08:01:55.404Z,34.17
2018-01-10T08:04:23.079Z,35.30
2018-01-10T08:06:51.614Z,36.63
2018-01-10T08:09:19.177Z,36.60
2018-01-10T08:11:46.862Z,35.37
2018-01-10T08:14:14.603Z,39.20
2018-01-10T08:16:42.218Z,37.50
2018-01-10T08:19:09.791Z,34.23
2018-01-10T08:21:38.127Z,34.57
2018-01-10T08:24:05.696Z,35.53
2018-01-10T08:26:33.322Z,33.83
2018-01-10T08:29:00.954Z,33.57
2018-01-10T08:31:28.695Z,34.40
2018-01-10T08:33:56.264Z,31.30
2018-01-10T08:36:23.843Z,34.17
2018-01-10T08:38:51.426Z,33.87
2018-01-10T08:41:19.025Z,33.63
2018-01-10T08:43:46.622Z,36.13
2018-01-10T08:46:14.230Z,34.10
2018-01-10T08:48:41.798Z,36.13
2018-01-10T08:51:09.363Z,35.13
2018-01-10T08:53:36.957Z,32.97
2018-01-10T08:56:04.577Z,33.47
2018-01-10T08:58:32.572Z,34.17
2018-01-10T09:01:00.187Z,33.00
2018-01-10T09:03:27.846Z,30.30
2018-01-10T09:05:55.865Z,30.70
2018-01-10T09:08:24.193Z,31.33
2018-01-10T09:10:51.797Z,31.70
2018-01-10T09:13:19.441Z,30.13
2018-01-10T09:15:47.026Z,30.70
2018-01-10T09:18:14.682Z,30.00
2018-01-10T09:20:42.331Z,28.20
2018-01-10T09:23:10.064Z,29.10
2018-01-10T09:25:38.420Z,28.87
2018-01-10T09:28:06.441Z,30.63
2018-01-10T09:30:34.021Z,30.67
2018-01-10T09:33:01.654Z,41.53
2018-01-10T09:35:29.230Z,29.07
2018-01-10T09:37:56.835Z,30.83
2018-01-10T09:40:24.453Z,29.73
2018-01-10T09:42:52.076Z,28.40
2018-01-10T09:45:19.691Z,32.33
2018-01-10T09:47:47.469Z,27.73
2018-01-10T09:50:15.110Z,29.37
2018-01-10T09:52:42.728Z,30.13
2018-01-10T09:55:10.375Z,30.33
2018-01-10T09:57:37.940Z,30.10
2018-01-10T10:00:06.277Z,29.33
2018-01-10T10:02:33.861Z,28.10
2018-01-10T10:05:01.553Z,30.03
2018-01-10T10:07:30.126Z,29.27
2018-01-10T10:09:57.927Z,29.40
2018-01-10T10:12:25.545Z,29.27
2018-01-10T10:14:53.103Z,29.47
2018-01-10T10:17:20.683Z,27.67
2018-01-10T10:19:48.547Z,29.13
2018-01-10T10:22:16.104Z,28.70
2018-01-10T10:24:44.018Z,29.77
2018-01-10T10:27:11.634Z,30.20
2018-01-10T10:29:39.247Z,29.20
2018-01-10T10:32:06.855Z,28.33
2018-01-10T10:34:34.415Z,29.30
2018-01-10T10:37:02.434Z,28.50
2018-01-10T10:39:30.023Z,30.10
2018-01-10T10:41:57.842Z,29.13
2018-01-10T10:44:25.413Z,30.37
2018-01-10T10:46:53.009Z,29.03
2018-01-10T10:49:20.884Z,31.23
2018-01-10T10:51:48.486Z,29.03
2018-01-10T10:54:16.070Z,29.37
2018-01-10T10:56:43.653Z,29.47
2018-01-10T10:59:11.219Z,31.10
2018-01-10T11:01:39.755Z,29.23
2018-01-10T11:04:07.327Z,29.13
2018-01-10T11:06:34.934Z,29.13
2018-01-10T11:09:02.540Z,29.17
2018-01-10T11:11:30.111Z,29.67
2018-01-10T11:13:57.977Z,28.40
2018-01-10T11:16:25.602Z,28.50
2018-01-10T11:18:53.202Z,30.07
2018-01-10T11:21:20.821Z,31.13
2018-01-10T11:23:48.484Z,28.90
2018-01-10T11:26:16.085Z,27.70
2018-01-10T11:28:43.698Z,29.23
2018-01-10T11:31:11.245Z,30.03
2018-01-10T11:33:38.872Z,28.97
2018-01-10T11:36:06.431Z,28.23
2018-01-10T11:38:34.136Z,29.30
2018-01-10T11:41:01.706Z,28.93
2018-01-10T11:43:29.311Z,29.03
2018-01-10T11:45:56.873Z,30.30
2018-01-10T11:48:24.767Z,30.43
2018-01-10T11:50:53.105Z,29.23
2018-01-10T11:53:20.869Z,27.90
2018-01-10T11:55:48.517Z,28.97
2018-01-10T11:58:16.129Z,27.77
2018-01-10T12:00:44.806Z,28.87
2018-01-10T12:03:12.521Z,27.50
2018-01-10T12:05:40.131Z,27.40
2018-01-10T12:08:09.177Z,28.30
2018-01-10T12:19:11.586Z,31.40
2018-01-10T12:21:39.965Z,29.37
2018-01-10T12:24:08.320Z,30.97
2018-01-10T12:26:35.881Z,32.10
2018-01-10T12:29:03.532Z,32.40
2018-01-10T12:31:31.340Z,32.77
2018-01-10T12:33:58.982Z,31.83
2018-01-10T12:36:26.723Z,31.93
2018-01-10T12:38:54.536Z,31.37
2018-01-10T12:41:22.258Z,30.53
2018-01-10T12:43:50.101Z,31.40
2018-01-10T12:46:17.825Z,30.13
2018-01-10T12:48:45.595Z,31.13
2018-01-10T12:51:13.263Z,28.90
2018-01-10T12:53:40.872Z,33.40
2018-01-10T12:56:09.716Z,32.63
2018-01-10T12:58:37.966Z,32.53
2018-01-10T13:01:05.596Z,31.53
2018-01-10T13:03:33.118Z,31.90
2018-01-10T13:06:00.893Z,33.60
2018-01-10T13:08:28.442Z,35.97
2018-01-10T13:10:56.497Z,34.70
2018-01-10T13:13:25.143Z,33.87
2018-01-10T13:15:52.659Z,35.43
2018-01-10T13:18:21.133Z,35.90
2018-01-10T13:20:48.699Z,37.60
2018-01-10T13:23:17.130Z,36.40
2018-01-10T13:25:44.702Z,37.80
2018-01-10T13:28:12.339Z,41.53
2018-01-10T13:30:40.161Z,42.97
2018-01-10T13:33:07.791Z,41.40
2018-01-10T13:35:36.199Z,42.10
2018-01-10T13:38:04.753Z,40.00
2018-01-10T13:40:32.381Z,40.90
2018-01-10T13:42:59.935Z,40.30
2018-01-10T13:45:28.080Z,41.17
2018-01-10T13:47:56.437Z,42.13
2018-01-10T13:50:23.970Z,41.10
2018-01-10T13:52:51.511Z,39.90
2018-01-10T13:55:19.807Z,38.70
2018-01-10T13:57:48.286Z,39.13
2018-01-10T14:00:16.652Z,39.77
2018-01-10T14:02:44.604Z,41.93
2018-01-10T14:05:12.998Z,40.53
2018-01-10T14:07:40.854Z,41.43
2018-01-10T14:10:08.573Z,41.77
2018-01-10T14:12:36.181Z,42.97
2018-01-10T14:15:03.998Z,42.77
2018-01-10T14:17:32.592Z,42.83
2018-01-10T14:20:00.974Z,41.43
2018-01-10T14:22:28.533Z,39.30
2018-01-10T14:24:56.213Z,38.17
2018-01-10T14:27:23.818Z,38.73
2018-01-10T14:29:51.591Z,39.30
2018-01-10T14:32:19.498Z,39.93
2018-01-10T14:34:47.947Z,39.53
2018-01-10T14:37:15.779Z,40.53
2018-01-10T14:39:43.517Z,38.10
2018-01-10T14:42:11.856Z,39.80
2018-01-10T14:44:39.437Z,37.60
2018-01-10T14:47:07.786Z,38.07
2018-01-10T14:49:35.374Z,43.50
2018-01-10T14:52:03.035Z,41.17
2018-01-10T14:54:30.600Z,39.87
2018-01-10T14:56:59.642Z,40.57
2018-01-10T14:59:27.234Z,37.57
2018-01-10T15:01:54.936Z,38.27
2018-01-10T15:04:23.226Z,40.07
2018-01-10T15:06:51.493Z,38.20
2018-01-10T15:09:19.231Z,39.57
2018-01-10T15:11:46.784Z,38.90
2018-01-10T15:14:14.559Z,42.40
2018-01-10T15:16:42.812Z,43.53
2018-01-10T15:19:10.405Z,38.80
2018-01-10T15:21:39.467Z,39.03
2018-01-10T15:24:07.643Z,39.87
2018-01-10T15:26:35.203Z,38.37
2018-01-10T15:29:02.751Z,41.83
2018-01-10T15:31:31.114Z,41.30
2018-01-10T15:33:58.918Z,43.67
2018-01-10T15:36:26.461Z,45.90
2018-01-10T15:38:54.000Z,42.67
2018-01-10T15:41:21.597Z,44.53
2018-01-10T15:43:49.229Z,43.23
2018-01-10T15:46:18.065Z,42.07
2018-01-10T15:48:45.660Z,42.23
2018-01-10T15:51:13.203Z,43.10
2018-01-10T15:53:43.053Z,43.57
2018-01-10T15:56:10.664Z,43.60
2018-01-10T15:58:40.423Z,44.10
2018-01-10T16:01:08.353Z,43.97
2018-01-10T16:03:35.879Z,41.33
2018-01-10T16:06:03.561Z,40.43
2018-01-10T16:08:32.187Z,39.57
2018-01-10T16:10:59.771Z,38.43
2018-01-10T16:13:27.277Z,35.90
2018-01-10T16:15:56.441Z,35.37
2018-01-10T16:18:24.068Z,36.47
2018-01-10T16:20:52.130Z,35.67
2018-01-10T16:23:19.684Z,36.03
2018-01-10T16:25:47.260Z,36.27
2018-01-10T16:28:14.806Z,37.00
2018-01-10T16:30:42.340Z,34.97
2018-01-10T16:33:10.665Z,39.43
2018-01-10T16:35:38.200Z,38.60
2018-01-10T16:38:05.984Z,36.70
2018-01-10T16:40:33.834Z,39.20
2018-01-10T16:43:01.392Z,34.60
2018-01-10T16:45:28.953Z,33.90
2018-01-10T16:47:56.504Z,35.67
2018-01-10T16:50:24.144Z,35.97
2018-01-10T16:52:51.954Z,34.07
2018-01-10T16:55:19.569Z,40.60
2018-01-10T16:57:47.329Z,37.10
2018-01-10T17:00:17.000Z,34.87
2018-01-10T17:02:44.599Z,35.40
2018-01-10T17:05:12.486Z,34.93
2018-01-10T17:07:40.293Z,32.93
2018-01-10T17:10:07.901Z,32.80
2018-01-10T17:12:35.511Z,33.27
2018-01-10T17:15:03.096Z,34.27
2018-01-10T17:17:30.655Z,34.83
2018-01-10T17:19:58.286Z,33.40
2018-01-10T17:22:26.032Z,32.37
2018-01-10T17:24:53.584Z,32.10
2018-01-10T17:27:21.703Z,35.33
2018-01-10T17:29:49.213Z,32.87
2018-01-10T17:32:18.480Z,32.53
2018-01-10T17:34:46.814Z,32.77
2018-01-10T17:37:14.350Z,33.50
2018-01-10T17:39:41.889Z,33.53
2018-01-10T17:42:09.595Z,34.00
2018-01-10T17:44:37.128Z,33.07
2018-01-10T17:47:05.448Z,33.73
2018-01-10T17:49:32.992Z,30.60
2018-01-10T17:52:00.526Z,33.40
2018-01-10T17:54:28.853Z,32.43
2018-01-10T17:56:56.528Z,34.17
2018-01-10T17:59:24.122Z,33.17
2018-01-10T18:01:52.409Z,35.80
2018-01-10T18:04:20.605Z,36.93
2018-01-10T18:06:48.132Z,38.57
2018-01-10T18:09:15.738Z,37.57
2018-01-10T18:11:43.434Z,35.83
2018-01-10T18:14:11.046Z,36.40
2018-01-10T18:16:38.756Z,34.70
2018-01-10T18:19:06.289Z,33.37
2018-01-10T18:21:33.798Z,35.23
2018-01-10T18:24:01.534Z,37.13
2018-01-10T18:26:38.771Z,35.47
2018-01-10T18:29:06.524Z,37.03
2018-01-10T18:31:35.611Z,36.00
2018-01-10T18:34:05.964Z,37.10
2018-01-10T18:36:33.522Z,38.27
2018-01-10T18:39:01.157Z,46.10
2018-01-10T18:41:29.561Z,43.03
2018-01-10T18:43:57.327Z,46.83
2018-01-10T18:46:24.846Z,38.57
2018-01-10T18:48:53.560Z,37.20
2018-01-10T18:51:22.922Z,39.83
2018-01-10T18:53:50.548Z,40.13
2018-01-10T18:56:18.175Z,40.83
2018-01-10T18:58:46.605Z,38.30
2018-01-10T19:01:14.199Z,42.73
2018-01-10T19:03:41.816Z,40.90
2018-01-10T19:06:09.348Z,39.77
2018-01-10T19:08:36.950Z,39.57
2018-01-10T19:11:04.660Z,40.20
2018-01-10T19:13:32.260Z,41.50
2018-01-10T19:15:59.870Z,41.00
2018-01-10T19:18:28.532Z,41.53
2018-01-10T19:20:56.111Z,42.03
2018-01-10T19:23:25.164Z,41.03
2018-01-10T19:25:52.711Z,47.20
2018-01-10T19:28:20.572Z,41.03
2018-01-10T19:30:48.339Z,45.43
2018-01-10T19:33:15.951Z,49.33
2018-01-10T19:35:44.724Z,43.33
2018-01-10T19:38:13.884Z,43.40
2018-01-10T19:40:41.527Z,47.27
2018-01-10T19:43:09.237Z,47.73
2018-01-10T19:45:36.887Z,47.07
2018-01-10T19:48:04.476Z,44.60
2018-01-10T19:50:32.063Z,50.70
2018-01-10T19:53:00.558Z,48.67
2018-01-10T19:55:28.152Z,45.43
2018-01-10T19:57:55.725Z,45.67
2018-01-10T20:00:23.314Z,50.73
2018-01-10T20:02:50.942Z,53.00
2018-01-10T20:05:18.485Z,53.43
2018-01-10T20:07:46.259Z,46.83
2018-01-10T20:10:14.023Z,45.53
2018-01-10T20:12:41.877Z,50.30
2018-01-10T20:15:10.421Z,53.13
2018-01-10T20:17:38.840Z,45.40
2018-01-10T20:20:06.581Z,48.67
2018-01-10T20:22:39.318Z,49.37
2018-01-10T20:25:07.017Z,49.53
2018-01-10T20:27:35.442Z,47.77
2018-01-10T20:30:03.082Z,46.97
2018-01-10T20:32:33.401Z,50.27
2018-01-10T20:35:00.989Z,46.10
2018-01-10T20:37:29.100Z,45.63
2018-01-10T20:39:57.243Z,48.30
2018-01-10T20:42:25.293Z,42.83
2018-01-10T20:44:52.856Z,40.07
2018-01-10T20:47:21.012Z,46.27
2018-01-10T20:49:48.569Z,43.07
2018-01-10T20:52:17.055Z,46.47
2018-01-10T20:54:45.414Z,42.50
2018-01-10T20:57:13.002Z,44.17
2018-01-10T20:59:40.731Z,42.37
2018-01-10T21:02:09.218Z,42.53
2018-01-10T21:04:36.755Z,39.70
2018-01-10T21:07:05.074Z,37.60
2018-01-10T21:09:32.685Z,38.53
2018-01-10T21:12:00.326Z,35.97
2018-01-10T21:14:28.554Z,37.70
2018-01-10T21:16:56.085Z,38.87
2018-01-10T21:19:23.900Z,39.27
2018-01-10T21:21:51.442Z,37.13
2018-01-10T21:24:20.425Z,34.90
2018-01-10T21:26:48.200Z,37.17
2018-01-10T21:29:16.359Z,34.40
2018-01-10T21:31:44.687Z,36.43
2018-01-10T21:34:12.211Z,37.97
2018-01-10T21:36:40.099Z,36.90
2018-01-10T21:39:07.673Z,38.57
2018-01-10T21:41:35.345Z,35.50
2018-01-10T21:44:02.966Z,33.47
2018-01-10T21:46:30.487Z,35.37
2018-01-10T21:48:58.898Z,33.40
2018-01-10T21:51:26.417Z,40.63
2018-01-10T21:53:53.987Z,35.10
2018-01-10T21:56:21.526Z,31.20
2018-01-10T21:58:49.115Z,34.63
2018-01-10T22:01:18.167Z,35.93
2018-01-10T22:03:45.726Z,35.07
2018-01-10T22:06:13.275Z,42.70
2018-01-10T22:08:40.808Z,38.37
2018-01-10T22:11:08.336Z,36.10
2018-01-10T22:13:37.769Z,39.13
2018-01-10T22:16:05.782Z,35.40
2018-01-10T22:18:33.525Z,34.87
2018-01-10T22:21:01.174Z,34.63
2018-01-10T22:23:29.273Z,35.37
2018-01-10T22:25:57.172Z,34.70
2018-01-10T22:28:24.912Z,33.33
2018-01-10T22:30:53.526Z,34.77
2018-01-10T22:33:21.147Z,36.13
2018-01-10T22:35:48.662Z,36.83
2018-01-10T22:38:17.695Z,38.50
2018-01-10T22:40:45.192Z,35.97
2018-01-10T22:43:12.989Z,35.07
2018-01-10T22:45:41.278Z,35.37
2018-01-10T22:48:08.825Z,34.43
2018-01-10T22:50:36.383Z,34.57
2018-01-10T22:53:04.681Z,36.37
2018-01-10T22:55:32.257Z,34.13
2018-01-10T22:57:59.780Z,37.30
2018-01-10T23:00:27.728Z,36.47
2018-01-10T23:02:55.289Z,35.07
2018-01-10T23:05:23.594Z,34.90
2018-01-10T23:07:51.107Z,37.80
2018-01-10T23:10:18.629Z,33.20
2018-01-10T23:12:48.024Z,35.30
2018-01-10T23:15:15.618Z,35.80
2018-01-10T23:17:43.450Z,36.03
2018-01-10T23:20:11.729Z,34.70
2018-01-10T23:22:39.246Z,35.87
2018-01-10T23:25:07.113Z,36.60
2018-01-10T23:27:34.819Z,35.07
2018-01-10T23:30:02.371Z,37.43
2018-01-10T23:32:29.924Z,38.67
2018-01-10T23:34:57.735Z,39.67
2018-01-10T23:37:25.246Z,38.10
2018-01-10T23:39:52.857Z,36.03
2018-01-10T23:42:23.309Z,36.57
2018-01-10T23:44:51.013Z,39.87
2018-01-10T23:47:18.796Z,38.20
2018-01-10T23:49:47.232Z,36.90
2018-01-10T23:52:15.635Z,37.13
2018-01-10T23:54:43.150Z,37.03
2018-01-10T23:57:11.557Z,33.40
2018-01-10T23:59:39.184Z,37.50
